createdAt,value
2022-08-17T00:00:34.907Z,21.83
2022-08-17T00:05:45.397Z,21.63
2022-08-17T00:10:51.791Z,21.70
2022-08-17T00:15:59.750Z,22.40
2022-08-17T00:21:05.239Z,21.98
2022-08-17T00:26:16.518Z,22.90
2022-08-17T00:31:40.321Z,22.60
2022-08-17T00:36:44.042Z,22.67
2022-08-17T00:41:49.112Z,22.73
2022-08-17T00:46:56.313Z,22.65
2022-08-17T00:52:11.657Z,23.75
2022-08-17T00:57:22.734Z,22.40
2022-08-17T01:02:27.990Z,21.35
2022-08-17T01:07:31.819Z,21.73
2022-08-17T01:12:37.241Z,24.08
2022-08-17T01:17:41.673Z,24.75
2022-08-17T01:22:46.845Z,24.05
2022-08-17T01:27:51.228Z,26.65
2022-08-17T01:32:55.342Z,24.52
2022-08-17T01:38:27.041Z,24.08
2022-08-17T01:43:44.649Z,22.85
2022-08-17T01:48:48.624Z,23.85
2022-08-17T01:53:57.480Z,23.75
2022-08-17T01:59:01.452Z,25.05
2022-08-17T02:04:06.760Z,25.08
2022-08-17T02:09:16.835Z,23.73
2022-08-17T02:14:20.777Z,23.30
2022-08-17T02:19:24.436Z,23.77
2022-08-17T02:25:00.984Z,25.48
2022-08-17T02:29:57.662Z,24.25
2022-08-17T02:35:02.153Z,23.20
2022-08-17T02:40:10.432Z,24.10
2022-08-17T02:45:17.036Z,22.50
2022-08-17T02:55:29.881Z,23.42
2022-08-17T03:00:36.742Z,22.88
2022-08-17T03:05:41.790Z,23.75
2022-08-17T03:10:47.464Z,24.50
2022-08-17T03:15:51.225Z,22.97
2022-08-17T03:20:56.690Z,21.80
2022-08-17T03:26:02.217Z,21.55
2022-08-17T03:31:06.465Z,21.55
2022-08-17T03:36:11.067Z,20.05
2022-08-17T03:41:16.637Z,20.13
2022-08-17T03:46:38.084Z,19.45
2022-08-17T03:51:59.242Z,17.80
2022-08-17T03:57:06.534Z,18.40
2022-08-17T04:02:12.878Z,18.05
2022-08-17T04:07:16.681Z,17.70
2022-08-17T04:12:23.813Z,19.02
2022-08-17T04:17:30.214Z,18.35
2022-08-17T04:22:34.451Z,17.73
2022-08-17T04:27:39.686Z,18.15
2022-08-17T04:33:00.579Z,16.77
2022-08-17T04:38:17.082Z,17.23
2022-08-17T04:48:36.052Z,17.27
2022-08-17T04:53:42.923Z,18.75
2022-08-17T04:58:50.718Z,18.63
2022-08-17T05:03:56.215Z,18.15
2022-08-17T05:09:00.086Z,18.40
2022-08-17T05:14:05.512Z,18.65
2022-08-17T05:19:09.320Z,19.73
2022-08-17T05:24:42.716Z,19.85
2022-08-17T05:29:38.577Z,20.88
2022-08-17T05:34:42.694Z,21.02
2022-08-17T05:39:46.497Z,18.85
2022-08-17T05:44:51.896Z,18.90
2022-08-17T05:49:56.103Z,17.58
2022-08-17T05:55:18.709Z,18.15
2022-08-17T06:00:30.673Z,17.35
2022-08-17T06:05:52.800Z,17.48
2022-08-17T06:11:09.990Z,17.67
2022-08-17T06:16:33.891Z,17.25
2022-08-17T06:21:43.694Z,17.25
2022-08-17T06:26:48.471Z,16.13
2022-08-17T06:31:53.571Z,16.55
2022-08-17T06:37:09.350Z,15.35
2022-08-17T06:43:04.966Z,15.13
2022-08-17T06:47:57.663Z,14.88
2022-08-17T06:53:07.315Z,14.15
2022-08-17T06:58:15.991Z,13.55
2022-08-17T07:03:37.932Z,13.02
2022-08-17T07:08:57.344Z,14.18
2022-08-17T07:14:16.930Z,12.63
2022-08-17T07:19:28.104Z,13.55
2022-08-17T07:24:38.040Z,11.63
2022-08-17T07:29:46.950Z,12.35
2022-08-17T07:35:11.333Z,11.48
2022-08-17T07:40:19.169Z,11.43
2022-08-17T07:45:36.912Z,10.90
2022-08-17T07:50:42.125Z,11.15
2022-08-17T07:55:54.661Z,11.80
2022-08-17T08:01:08.121Z,10.40
2022-08-17T08:06:22.808Z,9.50
2022-08-17T08:11:32.460Z,10.02
2022-08-17T08:16:36.799Z,9.52
2022-08-17T08:21:50.379Z,8.15
2022-08-17T08:27:02.123Z,8.18
2022-08-17T08:32:14.683Z,7.40
2022-08-17T08:37:35.562Z,7.60
2022-08-17T08:42:50.809Z,7.22
2022-08-17T08:48:23.031Z,6.63
2022-08-17T08:53:46.574Z,6.32
2022-08-17T08:59:01.953Z,6.13
2022-08-17T09:04:26.626Z,6.32
2022-08-17T09:09:42.221Z,6.40
2022-08-17T09:14:52.083Z,6.90
2022-08-17T09:20:01.205Z,7.38
2022-08-17T09:25:11.971Z,7.05
2022-08-17T09:30:15.968Z,7.35
2022-08-17T09:35:25.144Z,7.30
2022-08-17T09:40:48.498Z,7.95
2022-08-17T09:45:55.095Z,8.77
2022-08-17T09:56:31.237Z,8.52
2022-08-17T10:01:39.905Z,7.90
2022-08-17T10:06:52.656Z,9.40
2022-08-17T10:12:20.516Z,9.73
2022-08-17T10:17:33.404Z,9.98
2022-08-17T10:22:59.670Z,10.65
2022-08-17T10:33:20.998Z,10.75
2022-08-17T10:38:39.795Z,12.38
2022-08-17T10:44:38.454Z,12.77
2022-08-17T10:54:49.277Z,12.10
2022-08-17T10:59:55.756Z,12.98
2022-08-17T11:05:41.466Z,13.32
2022-08-17T11:11:07.152Z,13.35
2022-08-17T11:16:36.030Z,14.40
2022-08-17T11:21:56.644Z,15.10
2022-08-17T11:27:24.483Z,15.18
2022-08-17T11:32:47.661Z,15.27
2022-08-17T11:38:02.933Z,16.10
2022-08-17T11:43:42.927Z,15.05
2022-08-17T11:49:31.220Z,16.42
2022-08-17T11:54:42.183Z,16.63
2022-08-17T11:59:58.514Z,15.95
2022-08-17T12:05:27.208Z,16.40
2022-08-17T12:10:34.355Z,16.33
2022-08-17T12:15:48.725Z,16.73
2022-08-17T12:21:17.670Z,15.30
2022-08-17T12:26:26.173Z,14.40
2022-08-17T12:31:34.759Z,14.77
2022-08-17T12:36:41.605Z,16.15
2022-08-17T12:41:48.385Z,13.90
2022-08-17T12:46:56.717Z,13.60
2022-08-17T12:52:15.555Z,14.30
2022-08-17T12:57:21.737Z,14.10
2022-08-17T13:02:33.639Z,13.50
2022-08-17T13:07:43.723Z,13.75
2022-08-17T13:12:49.596Z,14.32
2022-08-17T13:18:07.752Z,13.20
2022-08-17T13:23:22.635Z,13.55
2022-08-17T13:28:29.894Z,13.15
2022-08-17T13:33:44.540Z,13.43
2022-08-17T13:38:51.715Z,13.65
2022-08-17T13:43:55.983Z,13.32
2022-08-17T13:49:03.239Z,13.43
2022-08-17T13:54:31.811Z,13.63
2022-08-17T13:59:54.395Z,14.25
2022-08-17T14:05:02.168Z,15.25
2022-08-17T14:10:16.139Z,15.63
2022-08-17T14:15:23.440Z,15.85
2022-08-17T14:20:47.301Z,16.13
2022-08-17T14:25:52.372Z,16.38
2022-08-17T14:30:56.360Z,17.50
2022-08-17T14:36:00.170Z,16.42
2022-08-17T14:41:05.731Z,17.25
2022-08-17T14:46:12.306Z,18.00
2022-08-17T14:56:21.138Z,18.30
2022-08-17T15:01:26.172Z,17.90
2022-08-17T15:06:29.876Z,17.85
2022-08-17T15:11:35.039Z,17.75
2022-08-17T15:16:38.961Z,20.05
2022-08-17T15:21:42.708Z,18.73
2022-08-17T15:26:48.566Z,20.02
2022-08-17T15:31:53.607Z,20.60
2022-08-17T15:37:00.165Z,19.38
2022-08-17T15:42:05.788Z,20.45
2022-08-17T15:47:10.023Z,19.02
2022-08-17T15:52:18.866Z,17.42
2022-08-17T15:57:25.752Z,17.10
2022-08-17T16:03:29.440Z,16.48
2022-08-17T16:07:56.401Z,17.55
2022-08-17T16:13:02.106Z,17.50
2022-08-17T16:18:06.554Z,17.53
2022-08-17T16:23:15.044Z,18.95
2022-08-17T16:28:35.997Z,17.38
2022-08-17T16:33:40.274Z,17.52
2022-08-17T16:38:44.491Z,19.40
2022-08-17T16:43:51.141Z,17.60
2022-08-17T16:48:55.607Z,18.55
2022-08-17T16:53:59.658Z,18.33
2022-08-17T16:59:31.704Z,16.38
2022-08-17T17:04:38.277Z,18.25
2022-08-17T17:09:43.892Z,19.33
2022-08-17T17:14:59.285Z,18.83
2022-08-17T17:20:09.615Z,18.75
2022-08-17T17:25:23.811Z,18.02
2022-08-17T17:30:34.240Z,18.90
2022-08-17T17:35:47.916Z,20.67
2022-08-17T17:40:54.664Z,20.25
2022-08-17T17:46:27.637Z,18.65
2022-08-17T17:51:55.692Z,18.15
2022-08-17T17:57:15.294Z,19.25
2022-08-17T18:02:51.540Z,19.55
2022-08-17T18:08:10.843Z,18.30
2022-08-17T18:13:26.653Z,17.60
2022-08-17T18:18:39.969Z,17.90
2022-08-17T18:23:56.147Z,17.58
2022-08-17T18:29:00.713Z,18.50
2022-08-17T18:34:45.865Z,16.17
2022-08-17T18:39:48.717Z,18.98
2022-08-17T18:44:55.278Z,16.40
2022-08-17T18:50:22.177Z,16.33
2022-08-17T18:55:29.019Z,16.27
2022-08-17T19:00:38.307Z,17.45
2022-08-17T19:05:45.840Z,18.13
2022-08-17T19:10:53.697Z,18.13
2022-08-17T19:16:11.682Z,18.88
2022-08-17T19:21:25.045Z,19.40
2022-08-17T19:26:51.226Z,20.15
2022-08-17T19:31:59.475Z,19.17
2022-08-17T19:37:10.711Z,19.63
2022-08-17T19:42:23.359Z,20.67
2022-08-17T19:47:54.174Z,21.92
2022-08-17T19:53:07.353Z,23.17
2022-08-17T19:58:26.978Z,23.90
2022-08-17T20:03:35.920Z,23.63
2022-08-17T20:08:46.762Z,25.23
2022-08-17T20:13:56.985Z,25.83
2022-08-17T20:19:02.424Z,25.65
2022-08-17T20:24:18.936Z,25.20
2022-08-17T20:29:37.776Z,23.90
2022-08-17T20:34:47.655Z,25.08
2022-08-17T20:40:15.593Z,25.92
2022-08-17T20:45:56.420Z,24.10
2022-08-17T20:51:16.368Z,22.95
2022-08-17T20:56:50.508Z,23.23
2022-08-17T21:02:18.910Z,22.15
2022-08-17T21:07:30.025Z,22.85
2022-08-17T21:12:44.251Z,26.55
2022-08-17T21:17:51.357Z,30.35
2022-08-17T21:23:19.143Z,29.67
2022-08-17T21:29:00.359Z,29.80
2022-08-17T21:34:42.492Z,30.83
2022-08-17T21:39:54.570Z,31.02
2022-08-17T21:45:09.177Z,32.92
2022-08-17T21:50:20.516Z,31.10
2022-08-17T21:55:29.092Z,27.73
2022-08-17T22:00:34.806Z,26.85
2022-08-17T22:05:40.735Z,26.30
2022-08-17T22:10:47.517Z,28.20
2022-08-17T22:16:15.400Z,27.92
2022-08-17T22:21:32.961Z,27.60
2022-08-17T22:27:01.956Z,24.05
2022-08-17T22:32:07.117Z,24.90
2022-08-17T22:37:28.839Z,24.08
2022-08-17T22:42:33.124Z,24.65
2022-08-17T22:47:43.072Z,21.67
2022-08-17T22:53:13.894Z,20.92
2022-08-17T22:58:38.666Z,21.30
2022-08-17T23:03:56.276Z,21.55
2022-08-17T23:09:00.027Z,19.13
2022-08-17T23:14:03.869Z,18.63
2022-08-17T23:19:09.855Z,17.95
2022-08-17T23:24:20.532Z,16.13
2022-08-17T23:29:24.534Z,14.65
2022-08-17T23:34:31.273Z,15.82
2022-08-17T23:39:35.715Z,14.70
2022-08-17T23:44:41.696Z,14.63
2022-08-17T23:49:46.768Z,13.87
2022-08-17T23:54:50.694Z,14.10
2022-08-17T23:59:54.413Z,13.10
